sensor_id;sensor_type;location;lat;lon;timestamp;P1;durP1;ratioP1;P2;durP2;ratioP2
1354;SDS011;671;48.972;9.276;2022-09-09T00:07:52;0.40;;;0.30;;
1354;SDS011;671;48.972;9.276;2022-09-09T00:16:01;0.30;;;0.30;;
1354;SDS011;671;48.972;9.276;2022-09-09T00:21:17;0.30;;;0.30;;
1354;SDS011;671;48.972;9.276;2022-09-09T00:23:52;0.30;;;0.30;;
1354;SDS011;671;48.972;9.276;2022-09-09T00:26:39;0.30;;;0.30;;
1354;SDS011;671;48.972;9.276;2022-09-09T00:31:54;0.40;;;0.40;;
1354;SDS011;671;48.972;9.276;2022-09-09T00:34:29;0.40;;;0.40;;
1354;SDS011;671;48.972;9.276;2022-09-09T00:36:56;0.30;;;0.30;;
1354;SDS011;671;48.972;9.276;2022-09-09T00:39:42;0.30;;;0.30;;
1354;SDS011;671;48.972;9.276;2022-09-09T00:42:17;0.30;;;0.30;;
1354;SDS011;671;48.972;9.276;2022-09-09T00:57:59;0.30;;;0.30;;
1354;SDS011;671;48.972;9.276;2022-09-09T01:00:36;0.30;;;0.30;;
1354;SDS011;671;48.972;9.276;2022-09-09T01:03:20;0.30;;;0.30;;
1354;SDS011;671;48.972;9.276;2022-09-09T01:11:59;0.30;;;0.23;;
1354;SDS011;671;48.972;9.276;2022-09-09T01:20:00;0.30;;;0.23;;
1354;SDS011;671;48.972;9.276;2022-09-09T01:28:25;0.30;;;0.20;;
1354;SDS011;671;48.972;9.276;2022-09-09T01:30:53;0.30;;;0.20;;
1354;SDS011;671;48.972;9.276;2022-09-09T01:33:22;0.30;;;0.30;;
1354;SDS011;671;48.972;9.276;2022-09-09T01:35:53;0.30;;;0.20;;
1354;SDS011;671;48.972;9.276;2022-09-09T01:38:29;0.30;;;0.20;;
1354;SDS011;671;48.972;9.276;2022-09-09T01:40:57;0.30;;;0.30;;
1354;SDS011;671;48.972;9.276;2022-09-09T01:43:24;0.30;;;0.30;;
1354;SDS011;671;48.972;9.276;2022-09-09T01:45:53;0.30;;;0.30;;
1354;SDS011;671;48.972;9.276;2022-09-09T01:48:21;0.30;;;0.27;;
1354;SDS011;671;48.972;9.276;2022-09-09T01:50:49;0.30;;;0.30;;
1354;SDS011;671;48.972;9.276;2022-09-09T01:53:17;0.30;;;0.30;;
1354;SDS011;671;48.972;9.276;2022-09-09T01:55:55;0.30;;;0.30;;
1354;SDS011;671;48.972;9.276;2022-09-09T02:03:40;0.30;;;0.30;;
1354;SDS011;671;48.972;9.276;2022-09-09T02:06:47;0.30;;;0.30;;
1354;SDS011;671;48.972;9.276;2022-09-09T02:09:06;0.30;;;0.30;;
1354;SDS011;671;48.972;9.276;2022-09-09T02:11:36;0.30;;;0.30;;
1354;SDS011;671;48.972;9.276;2022-09-09T02:14:10;0.30;;;0.30;;
1354;SDS011;671;48.972;9.276;2022-09-09T02:16:53;0.30;;;0.30;;
1354;SDS011;671;48.972;9.276;2022-09-09T02:19:34;0.30;;;0.30;;
1354;SDS011;671;48.972;9.276;2022-09-09T02:22:24;0.30;;;0.30;;
1354;SDS011;671;48.972;9.276;2022-09-09T02:24:53;0.30;;;0.30;;
1354;SDS011;671;48.972;9.276;2022-09-09T02:27:24;0.30;;;0.30;;
1354;SDS011;671;48.972;9.276;2022-09-09T02:29:51;0.30;;;0.30;;
1354;SDS011;671;48.972;9.276;2022-09-09T02:32:22;0.40;;;0.40;;
1354;SDS011;671;48.972;9.276;2022-09-09T02:34:51;0.30;;;0.30;;
1354;SDS011;671;48.972;9.276;2022-09-09T02:37:24;0.30;;;0.20;;
1354;SDS011;671;48.972;9.276;2022-09-09T02:39:55;0.30;;;0.30;;
1354;SDS011;671;48.972;9.276;2022-09-09T02:42:21;0.30;;;0.30;;
1354;SDS011;671;48.972;9.276;2022-09-09T02:44:48;0.30;;;0.30;;
1354;SDS011;671;48.972;9.276;2022-09-09T02:47:21;0.30;;;0.20;;
1354;SDS011;671;48.972;9.276;2022-09-09T02:58:09;0.30;;;0.30;;
1354;SDS011;671;48.972;9.276;2022-09-09T03:00:39;0.30;;;0.30;;
1354;SDS011;671;48.972;9.276;2022-09-09T03:03:06;0.30;;;0.30;;
1354;SDS011;671;48.972;9.276;2022-09-09T03:05:35;0.40;;;0.30;;
1354;SDS011;671;48.972;9.276;2022-09-09T03:08:02;0.30;;;0.30;;
1354;SDS011;671;48.972;9.276;2022-09-09T03:10:29;0.30;;;0.30;;
1354;SDS011;671;48.972;9.276;2022-09-09T03:12:56;0.40;;;0.33;;
1354;SDS011;671;48.972;9.276;2022-09-09T03:15:22;0.30;;;0.30;;
1354;SDS011;671;48.972;9.276;2022-09-09T03:17:49;0.30;;;0.30;;
1354;SDS011;671;48.972;9.276;2022-09-09T03:20:16;0.30;;;0.30;;
1354;SDS011;671;48.972;9.276;2022-09-09T03:22:42;0.30;;;0.30;;
1354;SDS011;671;48.972;9.276;2022-09-09T03:25:10;0.40;;;0.30;;
1354;SDS011;671;48.972;9.276;2022-09-09T03:27:37;0.30;;;0.30;;
1354;SDS011;671;48.972;9.276;2022-09-09T03:30:03;0.30;;;0.30;;
1354;SDS011;671;48.972;9.276;2022-09-09T03:32:30;0.30;;;0.30;;
1354;SDS011;671;48.972;9.276;2022-09-09T03:34:57;0.40;;;0.40;;
1354;SDS011;671;48.972;9.276;2022-09-09T03:37:23;0.30;;;0.30;;
1354;SDS011;671;48.972;9.276;2022-09-09T03:39:50;0.40;;;0.40;;
1354;SDS011;671;48.972;9.276;2022-09-09T03:42:16;0.40;;;0.40;;
1354;SDS011;671;48.972;9.276;2022-09-09T03:44:46;0.30;;;0.30;;
1354;SDS011;671;48.972;9.276;2022-09-09T03:47:17;0.40;;;0.40;;
1354;SDS011;671;48.972;9.276;2022-09-09T03:49:45;0.30;;;0.20;;
1354;SDS011;671;48.972;9.276;2022-09-09T03:52:12;0.40;;;0.40;;
1354;SDS011;671;48.972;9.276;2022-09-09T03:54:38;0.40;;;0.30;;
1354;SDS011;671;48.972;9.276;2022-09-09T03:57:05;0.37;;;0.37;;
1354;SDS011;671;48.972;9.276;2022-09-09T03:59:32;0.40;;;0.40;;
1354;SDS011;671;48.972;9.276;2022-09-09T04:01:58;0.40;;;0.30;;
1354;SDS011;671;48.972;9.276;2022-09-09T04:04:25;0.40;;;0.40;;
1354;SDS011;671;48.972;9.276;2022-09-09T04:06:52;0.30;;;0.30;;
1354;SDS011;671;48.972;9.276;2022-09-09T04:09:19;0.30;;;0.30;;
1354;SDS011;671;48.972;9.276;2022-09-09T04:11:46;0.30;;;0.30;;
1354;SDS011;671;48.972;9.276;2022-09-09T04:14:12;0.40;;;0.30;;
1354;SDS011;671;48.972;9.276;2022-09-09T04:16:39;0.40;;;0.30;;
1354;SDS011;671;48.972;9.276;2022-09-09T04:19:10;0.30;;;0.30;;
1354;SDS011;671;48.972;9.276;2022-09-09T04:21:40;0.30;;;0.30;;
1354;SDS011;671;48.972;9.276;2022-09-09T04:24:07;0.40;;;0.30;;
1354;SDS011;671;48.972;9.276;2022-09-09T04:26:34;0.40;;;0.33;;
1354;SDS011;671;48.972;9.276;2022-09-09T04:29:05;0.30;;;0.30;;
1354;SDS011;671;48.972;9.276;2022-09-09T04:31:33;0.30;;;0.30;;
1354;SDS011;671;48.972;9.276;2022-09-09T04:33:59;0.30;;;0.30;;
1354;SDS011;671;48.972;9.276;2022-09-09T04:36:34;0.40;;;0.40;;
1354;SDS011;671;48.972;9.276;2022-09-09T04:39:00;0.30;;;0.20;;
1354;SDS011;671;48.972;9.276;2022-09-09T04:41:27;0.37;;;0.37;;
1354;SDS011;671;48.972;9.276;2022-09-09T04:43:54;0.30;;;0.20;;
1354;SDS011;671;48.972;9.276;2022-09-09T04:46:21;0.37;;;0.37;;
1354;SDS011;671;48.972;9.276;2022-09-09T04:48:49;0.30;;;0.30;;
1354;SDS011;671;48.972;9.276;2022-09-09T04:51:15;0.30;;;0.30;;
1354;SDS011;671;48.972;9.276;2022-09-09T04:53:42;0.30;;;0.30;;
1354;SDS011;671;48.972;9.276;2022-09-09T04:56:15;0.30;;;0.30;;
1354;SDS011;671;48.972;9.276;2022-09-09T04:58:42;0.30;;;0.30;;
1354;SDS011;671;48.972;9.276;2022-09-09T05:01:10;0.30;;;0.30;;
1354;SDS011;671;48.972;9.276;2022-09-09T05:03:40;0.30;;;0.30;;
1354;SDS011;671;48.972;9.276;2022-09-09T05:06:10;0.30;;;0.30;;
1354;SDS011;671;48.972;9.276;2022-09-09T05:08:40;0.40;;;0.40;;
1354;SDS011;671;48.972;9.276;2022-09-09T05:11:23;0.30;;;0.30;;
1354;SDS011;671;48.972;9.276;2022-09-09T05:13:53;0.40;;;0.40;;
1354;SDS011;671;48.972;9.276;2022-09-09T05:16:19;0.33;;;0.33;;
1354;SDS011;671;48.972;9.276;2022-09-09T05:18:47;0.40;;;0.40;;
1354;SDS011;671;48.972;9.276;2022-09-09T05:21:14;0.40;;;0.40;;
1354;SDS011;671;48.972;9.276;2022-09-09T05:23:42;0.40;;;0.30;;
1354;SDS011;671;48.972;9.276;2022-09-09T05:26:12;0.40;;;0.40;;
1354;SDS011;671;48.972;9.276;2022-09-09T05:28:40;0.30;;;0.30;;
1354;SDS011;671;48.972;9.276;2022-09-09T05:31:08;0.33;;;0.33;;
1354;SDS011;671;48.972;9.276;2022-09-09T05:33:38;0.40;;;0.40;;
1354;SDS011;671;48.972;9.276;2022-09-09T05:36:07;0.30;;;0.30;;
1354;SDS011;671;48.972;9.276;2022-09-09T05:38:36;0.30;;;0.30;;
1354;SDS011;671;48.972;9.276;2022-09-09T05:41:03;0.30;;;0.30;;
1354;SDS011;671;48.972;9.276;2022-09-09T05:43:30;0.30;;;0.30;;
1354;SDS011;671;48.972;9.276;2022-09-09T05:46:08;0.30;;;0.30;;
1354;SDS011;671;48.972;9.276;2022-09-09T05:48:37;0.30;;;0.27;;
1354;SDS011;671;48.972;9.276;2022-09-09T05:51:05;0.30;;;0.30;;
1354;SDS011;671;48.972;9.276;2022-09-09T05:53:34;0.30;;;0.30;;
1354;SDS011;671;48.972;9.276;2022-09-09T05:56:02;0.30;;;0.20;;
1354;SDS011;671;48.972;9.276;2022-09-09T05:58:31;0.33;;;0.33;;
1354;SDS011;671;48.972;9.276;2022-09-09T06:01:35;0.30;;;0.20;;
1354;SDS011;671;48.972;9.276;2022-09-09T06:03:55;0.30;;;0.23;;
1354;SDS011;671;48.972;9.276;2022-09-09T06:06:23;0.30;;;0.27;;
1354;SDS011;671;48.972;9.276;2022-09-09T06:08:52;0.30;;;0.30;;
1354;SDS011;671;48.972;9.276;2022-09-09T06:11:23;0.30;;;0.20;;
1354;SDS011;671;48.972;9.276;2022-09-09T06:13:55;0.30;;;0.30;;
1354;SDS011;671;48.972;9.276;2022-09-09T06:16:22;0.30;;;0.30;;
1354;SDS011;671;48.972;9.276;2022-09-09T06:18:51;0.30;;;0.20;;
1354;SDS011;671;48.972;9.276;2022-09-09T06:21:22;0.37;;;0.37;;
1354;SDS011;671;48.972;9.276;2022-09-09T06:23:49;0.30;;;0.30;;
1354;SDS011;671;48.972;9.276;2022-09-09T06:26:18;0.30;;;0.20;;
1354;SDS011;671;48.972;9.276;2022-09-09T06:28:46;0.30;;;0.20;;
1354;SDS011;671;48.972;9.276;2022-09-09T06:31:16;0.30;;;0.30;;
1354;SDS011;671;48.972;9.276;2022-09-09T06:33:47;0.30;;;0.20;;
1354;SDS011;671;48.972;9.276;2022-09-09T06:38:49;0.30;;;0.30;;
1354;SDS011;671;48.972;9.276;2022-09-09T06:41:17;0.30;;;0.30;;
1354;SDS011;671;48.972;9.276;2022-09-09T06:43:45;0.30;;;0.20;;
1354;SDS011;671;48.972;9.276;2022-09-09T06:46:13;0.30;;;0.30;;
1354;SDS011;671;48.972;9.276;2022-09-09T06:48:41;0.30;;;0.20;;
1354;SDS011;671;48.972;9.276;2022-09-09T06:51:11;0.30;;;0.20;;
1354;SDS011;671;48.972;9.276;2022-09-09T06:53:42;0.30;;;0.20;;
1354;SDS011;671;48.972;9.276;2022-09-09T06:58:37;0.30;;;0.20;;
1354;SDS011;671;48.972;9.276;2022-09-09T07:01:13;0.30;;;0.20;;
1354;SDS011;671;48.972;9.276;2022-09-09T07:03:41;0.30;;;0.20;;
1354;SDS011;671;48.972;9.276;2022-09-09T07:06:09;0.30;;;0.30;;
1354;SDS011;671;48.972;9.276;2022-09-09T07:08:48;0.30;;;0.20;;
1354;SDS011;671;48.972;9.276;2022-09-09T07:11:16;0.30;;;0.27;;
1354;SDS011;671;48.972;9.276;2022-09-09T07:13:45;0.30;;;0.20;;
1354;SDS011;671;48.972;9.276;2022-09-09T07:16:15;0.30;;;0.30;;
1354;SDS011;671;48.972;9.276;2022-09-09T07:18:43;0.30;;;0.20;;
1354;SDS011;671;48.972;9.276;2022-09-09T07:21:10;0.30;;;0.30;;
1354;SDS011;671;48.972;9.276;2022-09-09T07:23:40;0.30;;;0.20;;
1354;SDS011;671;48.972;9.276;2022-09-09T07:26:11;0.30;;;0.20;;
1354;SDS011;671;48.972;9.276;2022-09-09T07:28:40;0.30;;;0.20;;
1354;SDS011;671;48.972;9.276;2022-09-09T07:31:08;0.30;;;0.20;;
1354;SDS011;671;48.972;9.276;2022-09-09T07:33:41;0.30;;;0.20;;
1354;SDS011;671;48.972;9.276;2022-09-09T07:36:09;0.30;;;0.20;;
1354;SDS011;671;48.972;9.276;2022-09-09T07:38:44;0.30;;;0.20;;
1354;SDS011;671;48.972;9.276;2022-09-09T07:41:13;0.30;;;0.20;;
1354;SDS011;671;48.972;9.276;2022-09-09T07:43:48;0.30;;;0.20;;
1354;SDS011;671;48.972;9.276;2022-09-09T07:46:16;0.30;;;0.20;;
1354;SDS011;671;48.972;9.276;2022-09-09T07:48:45;0.30;;;0.20;;
1354;SDS011;671;48.972;9.276;2022-09-09T07:51:18;0.30;;;0.20;;
1354;SDS011;671;48.972;9.276;2022-09-09T07:53:48;0.30;;;0.20;;
1354;SDS011;671;48.972;9.276;2022-09-09T07:56:18;0.30;;;0.20;;
1354;SDS011;671;48.972;9.276;2022-09-09T07:58:45;0.30;;;0.20;;
1354;SDS011;671;48.972;9.276;2022-09-09T08:01:31;0.30;;;0.20;;
1354;SDS011;671;48.972;9.276;2022-09-09T08:04:02;0.30;;;0.20;;
1354;SDS011;671;48.972;9.276;2022-09-09T08:06:40;0.30;;;0.20;;
1354;SDS011;671;48.972;9.276;2022-09-09T08:09:08;0.30;;;0.20;;
1354;SDS011;671;48.972;9.276;2022-09-09T08:11:36;0.30;;;0.20;;
1354;SDS011;671;48.972;9.276;2022-09-09T08:14:03;0.30;;;0.20;;
1354;SDS011;671;48.972;9.276;2022-09-09T08:16:31;0.30;;;0.20;;
1354;SDS011;671;48.972;9.276;2022-09-09T08:18:59;0.30;;;0.20;;
1354;SDS011;671;48.972;9.276;2022-09-09T08:21:27;0.30;;;0.20;;
1354;SDS011;671;48.972;9.276;2022-09-09T08:23:55;0.30;;;0.10;;
1354;SDS011;671;48.972;9.276;2022-09-09T08:26:33;0.30;;;0.20;;
1354;SDS011;671;48.972;9.276;2022-09-09T08:29:02;0.30;;;0.20;;
1354;SDS011;671;48.972;9.276;2022-09-09T08:31:33;0.30;;;0.20;;
1354;SDS011;671;48.972;9.276;2022-09-09T08:34:03;0.30;;;0.20;;
1354;SDS011;671;48.972;9.276;2022-09-09T08:36:31;0.30;;;0.20;;
1354;SDS011;671;48.972;9.276;2022-09-09T08:39:00;0.30;;;0.20;;
1354;SDS011;671;48.972;9.276;2022-09-09T08:52:08;0.30;;;0.20;;
1354;SDS011;671;48.972;9.276;2022-09-09T08:58:15;0.30;;;0.20;;
1354;SDS011;671;48.972;9.276;2022-09-09T09:11:43;0.30;;;0.20;;
1354;SDS011;671;48.972;9.276;2022-09-09T09:14:21;0.30;;;0.20;;
1354;SDS011;671;48.972;9.276;2022-09-09T09:19:22;0.30;;;0.20;;
1354;SDS011;671;48.972;9.276;2022-09-09T09:27:16;0.30;;;0.20;;
1354;SDS011;671;48.972;9.276;2022-09-09T09:29:48;0.30;;;0.20;;
1354;SDS011;671;48.972;9.276;2022-09-09T09:32:18;0.30;;;0.20;;
1354;SDS011;671;48.972;9.276;2022-09-09T09:34:51;0.30;;;0.20;;
1354;SDS011;671;48.972;9.276;2022-09-09T09:37:29;0.30;;;0.20;;
1354;SDS011;671;48.972;9.276;2022-09-09T09:40:07;0.30;;;0.20;;
1354;SDS011;671;48.972;9.276;2022-09-09T09:42:35;0.30;;;0.20;;
1354;SDS011;671;48.972;9.276;2022-09-09T09:45:14;0.30;;;0.20;;
1354;SDS011;671;48.972;9.276;2022-09-09T09:48:02;0.30;;;0.20;;
1354;SDS011;671;48.972;9.276;2022-09-09T09:50:34;0.30;;;0.20;;
1354;SDS011;671;48.972;9.276;2022-09-09T09:53:04;0.30;;;0.20;;
1354;SDS011;671;48.972;9.276;2022-09-09T09:55:46;0.30;;;0.20;;
1354;SDS011;671;48.972;9.276;2022-09-09T09:58:25;0.30;;;0.20;;
1354;SDS011;671;48.972;9.276;2022-09-09T10:00:56;0.30;;;0.20;;
1354;SDS011;671;48.972;9.276;2022-09-09T10:06:05;0.30;;;0.20;;
1354;SDS011;671;48.972;9.276;2022-09-09T10:08:34;0.30;;;0.10;;
1354;SDS011;671;48.972;9.276;2022-09-09T10:11:20;0.30;;;0.13;;
1354;SDS011;671;48.972;9.276;2022-09-09T10:19:15;0.30;;;0.10;;
1354;SDS011;671;48.972;9.276;2022-09-09T10:30:17;0.30;;;0.10;;
1354;SDS011;671;48.972;9.276;2022-09-09T10:32:56;0.30;;;0.10;;
1354;SDS011;671;48.972;9.276;2022-09-09T10:35:36;0.30;;;0.20;;
1354;SDS011;671;48.972;9.276;2022-09-09T10:38:12;0.30;;;0.10;;
1354;SDS011;671;48.972;9.276;2022-09-09T10:43:39;0.30;;;0.10;;
1354;SDS011;671;48.972;9.276;2022-09-09T10:46:40;0.30;;;0.20;;
1354;SDS011;671;48.972;9.276;2022-09-09T10:49:16;0.30;;;0.20;;
1354;SDS011;671;48.972;9.276;2022-09-09T10:52:13;0.30;;;0.10;;
1354;SDS011;671;48.972;9.276;2022-09-09T11:03:01;0.30;;;0.20;;
1354;SDS011;671;48.972;9.276;2022-09-09T11:05:41;0.30;;;0.20;;
1354;SDS011;671;48.972;9.276;2022-09-09T11:08:23;0.30;;;0.10;;
1354;SDS011;671;48.972;9.276;2022-09-09T11:19:02;0.30;;;0.20;;
1354;SDS011;671;48.972;9.276;2022-09-09T11:21:41;0.30;;;0.10;;
1354;SDS011;671;48.972;9.276;2022-09-09T11:24:13;0.30;;;0.20;;
1354;SDS011;671;48.972;9.276;2022-09-09T11:26:53;0.30;;;0.20;;
1354;SDS011;671;48.972;9.276;2022-09-09T11:29:36;0.30;;;0.20;;
1354;SDS011;671;48.972;9.276;2022-09-09T11:34:54;0.30;;;0.20;;
1354;SDS011;671;48.972;9.276;2022-09-09T11:42:42;0.30;;;0.20;;
1354;SDS011;671;48.972;9.276;2022-09-09T11:45:09;0.30;;;0.20;;
1354;SDS011;671;48.972;9.276;2022-09-09T11:47:37;0.30;;;0.20;;
1354;SDS011;671;48.972;9.276;2022-09-09T11:50:08;0.30;;;0.20;;
1354;SDS011;671;48.972;9.276;2022-09-09T11:52:36;0.30;;;0.20;;
1354;SDS011;671;48.972;9.276;2022-09-09T11:55:12;0.30;;;0.20;;
1354;SDS011;671;48.972;9.276;2022-09-09T11:58:00;0.30;;;0.20;;
1354;SDS011;671;48.972;9.276;2022-09-09T12:00:38;0.30;;;0.20;;
1354;SDS011;671;48.972;9.276;2022-09-09T12:05:58;0.30;;;0.20;;
1354;SDS011;671;48.972;9.276;2022-09-09T12:08:29;0.30;;;0.20;;
1354;SDS011;671;48.972;9.276;2022-09-09T12:10:57;0.30;;;0.20;;
1354;SDS011;671;48.972;9.276;2022-09-09T12:13:26;0.30;;;0.20;;
1354;SDS011;671;48.972;9.276;2022-09-09T12:15:54;0.30;;;0.20;;
1354;SDS011;671;48.972;9.276;2022-09-09T12:21:02;0.30;;;0.20;;
1354;SDS011;671;48.972;9.276;2022-09-09T12:23:47;0.30;;;0.20;;
1354;SDS011;671;48.972;9.276;2022-09-09T12:26:25;0.30;;;0.20;;
1354;SDS011;671;48.972;9.276;2022-09-09T12:32:11;0.30;;;0.20;;
1354;SDS011;671;48.972;9.276;2022-09-09T12:39:45;0.30;;;0.20;;
1354;SDS011;671;48.972;9.276;2022-09-09T12:42:20;0.30;;;0.20;;
1354;SDS011;671;48.972;9.276;2022-09-09T12:44:51;0.30;;;0.10;;
1354;SDS011;671;48.972;9.276;2022-09-09T12:47:30;0.30;;;0.20;;
1354;SDS011;671;48.972;9.276;2022-09-09T12:50:04;0.30;;;0.20;;
1354;SDS011;671;48.972;9.276;2022-09-09T12:52:32;0.30;;;0.20;;
1354;SDS011;671;48.972;9.276;2022-09-09T12:55:02;0.30;;;0.20;;
1354;SDS011;671;48.972;9.276;2022-09-09T12:57:34;0.30;;;0.20;;
1354;SDS011;671;48.972;9.276;2022-09-09T13:00:21;0.30;;;0.20;;
1354;SDS011;671;48.972;9.276;2022-09-09T13:05:22;0.30;;;0.10;;
1354;SDS011;671;48.972;9.276;2022-09-09T13:07:51;0.30;;;0.10;;
1354;SDS011;671;48.972;9.276;2022-09-09T13:10:27;0.30;;;0.20;;
1354;SDS011;671;48.972;9.276;2022-09-09T13:12:58;0.30;;;0.20;;
1354;SDS011;671;48.972;9.276;2022-09-09T13:15:26;0.30;;;0.10;;
1354;SDS011;671;48.972;9.276;2022-09-09T13:17:59;0.30;;;0.20;;
1354;SDS011;671;48.972;9.276;2022-09-09T13:20:30;0.30;;;0.10;;
1354;SDS011;671;48.972;9.276;2022-09-09T13:22:57;0.30;;;0.10;;
1354;SDS011;671;48.972;9.276;2022-09-09T13:25:25;0.30;;;0.20;;
1354;SDS011;671;48.972;9.276;2022-09-09T13:27:57;0.30;;;0.17;;
1354;SDS011;671;48.972;9.276;2022-09-09T13:30:35;0.30;;;0.10;;
1354;SDS011;671;48.972;9.276;2022-09-09T13:35:35;0.30;;;0.10;;
1354;SDS011;671;48.972;9.276;2022-09-09T13:38:13;0.30;;;0.20;;
1354;SDS011;671;48.972;9.276;2022-09-09T13:40:51;0.30;;;0.10;;
1354;SDS011;671;48.972;9.276;2022-09-09T13:43:45;0.30;;;0.20;;
1354;SDS011;671;48.972;9.276;2022-09-09T13:46:47;0.30;;;0.20;;
1354;SDS011;671;48.972;9.276;2022-09-09T13:51:37;0.30;;;0.20;;
1354;SDS011;671;48.972;9.276;2022-09-09T13:54:09;0.30;;;0.20;;
1354;SDS011;671;48.972;9.276;2022-09-09T13:56:36;0.30;;;0.20;;
1354;SDS011;671;48.972;9.276;2022-09-09T13:59:05;0.30;;;0.20;;
1354;SDS011;671;48.972;9.276;2022-09-09T14:01:35;0.30;;;0.10;;
1354;SDS011;671;48.972;9.276;2022-09-09T14:04:03;0.30;;;0.10;;
1354;SDS011;671;48.972;9.276;2022-09-09T14:06:32;0.30;;;0.10;;
1354;SDS011;671;48.972;9.276;2022-09-09T14:09:03;0.30;;;0.20;;
1354;SDS011;671;48.972;9.276;2022-09-09T14:11:30;0.30;;;0.10;;
1354;SDS011;671;48.972;9.276;2022-09-09T14:13:56;0.30;;;0.20;;
1354;SDS011;671;48.972;9.276;2022-09-09T14:16:23;0.30;;;0.10;;
1354;SDS011;671;48.972;9.276;2022-09-09T14:18:49;0.30;;;0.20;;
1354;SDS011;671;48.972;9.276;2022-09-09T14:21:16;0.30;;;0.20;;
1354;SDS011;671;48.972;9.276;2022-09-09T14:23:42;0.30;;;0.10;;
1354;SDS011;671;48.972;9.276;2022-09-09T14:26:09;0.30;;;0.10;;
1354;SDS011;671;48.972;9.276;2022-09-09T14:28:35;0.30;;;0.20;;
1354;SDS011;671;48.972;9.276;2022-09-09T14:31:03;0.30;;;0.20;;
1354;SDS011;671;48.972;9.276;2022-09-09T14:33:31;0.30;;;0.10;;
1354;SDS011;671;48.972;9.276;2022-09-09T14:35:58;0.30;;;0.10;;
1354;SDS011;671;48.972;9.276;2022-09-09T14:38:28;0.30;;;0.17;;
1354;SDS011;671;48.972;9.276;2022-09-09T14:40:55;0.30;;;0.10;;
1354;SDS011;671;48.972;9.276;2022-09-09T14:43:23;0.30;;;0.10;;
1354;SDS011;671;48.972;9.276;2022-09-09T14:45:49;0.30;;;0.20;;
1354;SDS011;671;48.972;9.276;2022-09-09T14:48:17;0.30;;;0.20;;
1354;SDS011;671;48.972;9.276;2022-09-09T14:50:43;0.30;;;0.10;;
1354;SDS011;671;48.972;9.276;2022-09-09T14:53:10;0.30;;;0.20;;
1354;SDS011;671;48.972;9.276;2022-09-09T14:55:36;0.30;;;0.20;;
1354;SDS011;671;48.972;9.276;2022-09-09T14:58:03;0.30;;;0.20;;
1354;SDS011;671;48.972;9.276;2022-09-09T15:00:31;0.30;;;0.20;;
1354;SDS011;671;48.972;9.276;2022-09-09T15:02:57;0.30;;;0.10;;
1354;SDS011;671;48.972;9.276;2022-09-09T15:05:24;0.30;;;0.20;;
1354;SDS011;671;48.972;9.276;2022-09-09T15:07:50;0.30;;;0.20;;
1354;SDS011;671;48.972;9.276;2022-09-09T15:10:17;0.30;;;0.10;;
1354;SDS011;671;48.972;9.276;2022-09-09T15:12:43;0.30;;;0.20;;
1354;SDS011;671;48.972;9.276;2022-09-09T15:15:10;0.30;;;0.13;;
1354;SDS011;671;48.972;9.276;2022-09-09T15:17:38;0.30;;;0.10;;
1354;SDS011;671;48.972;9.276;2022-09-09T15:20:05;0.30;;;0.10;;
1354;SDS011;671;48.972;9.276;2022-09-09T15:22:32;0.30;;;0.20;;
1354;SDS011;671;48.972;9.276;2022-09-09T15:24:59;0.30;;;0.10;;
1354;SDS011;671;48.972;9.276;2022-09-09T15:27:26;0.30;;;0.10;;
1354;SDS011;671;48.972;9.276;2022-09-09T15:29:52;0.30;;;0.10;;
1354;SDS011;671;48.972;9.276;2022-09-09T15:32:18;0.30;;;0.10;;
1354;SDS011;671;48.972;9.276;2022-09-09T15:34:45;0.30;;;0.20;;
1354;SDS011;671;48.972;9.276;2022-09-09T15:37:12;0.30;;;0.20;;
1354;SDS011;671;48.972;9.276;2022-09-09T15:39:41;0.30;;;0.20;;
1354;SDS011;671;48.972;9.276;2022-09-09T15:42:07;0.30;;;0.20;;
1354;SDS011;671;48.972;9.276;2022-09-09T15:44:40;0.30;;;0.20;;
1354;SDS011;671;48.972;9.276;2022-09-09T15:47:10;0.30;;;0.20;;
1354;SDS011;671;48.972;9.276;2022-09-09T15:49:38;0.30;;;0.17;;
1354;SDS011;671;48.972;9.276;2022-09-09T15:52:05;0.30;;;0.10;;
1354;SDS011;671;48.972;9.276;2022-09-09T15:54:33;0.30;;;0.20;;
1354;SDS011;671;48.972;9.276;2022-09-09T15:57:01;0.30;;;0.10;;
1354;SDS011;671;48.972;9.276;2022-09-09T15:59:30;0.30;;;0.20;;
1354;SDS011;671;48.972;9.276;2022-09-09T16:01:58;0.30;;;0.20;;
1354;SDS011;671;48.972;9.276;2022-09-09T16:04:26;0.30;;;0.20;;
1354;SDS011;671;48.972;9.276;2022-09-09T16:06:54;0.30;;;0.20;;
1354;SDS011;671;48.972;9.276;2022-09-09T16:09:24;0.30;;;0.20;;
1354;SDS011;671;48.972;9.276;2022-09-09T16:11:52;0.30;;;0.20;;
1354;SDS011;671;48.972;9.276;2022-09-09T16:14:21;0.30;;;0.10;;
1354;SDS011;671;48.972;9.276;2022-09-09T16:16:48;0.30;;;0.20;;
1354;SDS011;671;48.972;9.276;2022-09-09T16:19:14;0.30;;;0.20;;
1354;SDS011;671;48.972;9.276;2022-09-09T16:21:42;0.30;;;0.20;;
1354;SDS011;671;48.972;9.276;2022-09-09T16:24:11;0.30;;;0.10;;
1354;SDS011;671;48.972;9.276;2022-09-09T16:26:41;0.30;;;0.20;;
1354;SDS011;671;48.972;9.276;2022-09-09T16:29:11;0.30;;;0.10;;
1354;SDS011;671;48.972;9.276;2022-09-09T16:31:39;0.30;;;0.20;;
1354;SDS011;671;48.972;9.276;2022-09-09T16:34:06;0.30;;;0.10;;
1354;SDS011;671;48.972;9.276;2022-09-09T16:36:34;0.30;;;0.20;;
1354;SDS011;671;48.972;9.276;2022-09-09T16:39:04;0.30;;;0.20;;
1354;SDS011;671;48.972;9.276;2022-09-09T16:41:32;0.30;;;0.20;;
1354;SDS011;671;48.972;9.276;2022-09-09T16:44:00;0.30;;;0.20;;
1354;SDS011;671;48.972;9.276;2022-09-09T16:46:29;0.30;;;0.20;;
1354;SDS011;671;48.972;9.276;2022-09-09T16:48:57;0.30;;;0.20;;
1354;SDS011;671;48.972;9.276;2022-09-09T16:51:26;0.30;;;0.20;;
1354;SDS011;671;48.972;9.276;2022-09-09T16:53:54;0.30;;;0.20;;
1354;SDS011;671;48.972;9.276;2022-09-09T16:56:24;0.30;;;0.20;;
1354;SDS011;671;48.972;9.276;2022-09-09T16:58:53;0.30;;;0.20;;
1354;SDS011;671;48.972;9.276;2022-09-09T17:01:22;0.30;;;0.20;;
1354;SDS011;671;48.972;9.276;2022-09-09T17:03:56;0.30;;;0.20;;
1354;SDS011;671;48.972;9.276;2022-09-09T17:06:23;0.30;;;0.20;;
1354;SDS011;671;48.972;9.276;2022-09-09T17:08:54;0.30;;;0.20;;
1354;SDS011;671;48.972;9.276;2022-09-09T17:11:23;0.30;;;0.20;;
1354;SDS011;671;48.972;9.276;2022-09-09T17:13:50;0.30;;;0.20;;
1354;SDS011;671;48.972;9.276;2022-09-09T17:16:21;0.30;;;0.20;;
1354;SDS011;671;48.972;9.276;2022-09-09T17:18:51;0.30;;;0.20;;
1354;SDS011;671;48.972;9.276;2022-09-09T17:21:19;0.30;;;0.20;;
1354;SDS011;671;48.972;9.276;2022-09-09T17:23:49;0.30;;;0.27;;
1354;SDS011;671;48.972;9.276;2022-09-09T17:26:17;0.30;;;0.20;;
1354;SDS011;671;48.972;9.276;2022-09-09T17:28:45;0.30;;;0.20;;
1354;SDS011;671;48.972;9.276;2022-09-09T17:31:13;0.30;;;0.20;;
1354;SDS011;671;48.972;9.276;2022-09-09T17:33:43;0.30;;;0.20;;
1354;SDS011;671;48.972;9.276;2022-09-09T17:36:13;0.30;;;0.20;;
1354;SDS011;671;48.972;9.276;2022-09-09T17:38:42;0.30;;;0.20;;
1354;SDS011;671;48.972;9.276;2022-09-09T17:41:10;0.30;;;0.20;;
1354;SDS011;671;48.972;9.276;2022-09-09T17:43:44;0.30;;;0.20;;
1354;SDS011;671;48.972;9.276;2022-09-09T17:46:12;0.30;;;0.20;;
1354;SDS011;671;48.972;9.276;2022-09-09T17:48:42;0.30;;;0.20;;
1354;SDS011;671;48.972;9.276;2022-09-09T17:51:12;0.30;;;0.30;;
1354;SDS011;671;48.972;9.276;2022-09-09T17:53:42;0.30;;;0.20;;
1354;SDS011;671;48.972;9.276;2022-09-09T17:56:11;0.30;;;0.20;;
1354;SDS011;671;48.972;9.276;2022-09-09T17:58:39;0.30;;;0.20;;
1354;SDS011;671;48.972;9.276;2022-09-09T18:01:07;0.30;;;0.20;;
1354;SDS011;671;48.972;9.276;2022-09-09T18:03:38;0.30;;;0.30;;
1354;SDS011;671;48.972;9.276;2022-09-09T18:06:07;0.30;;;0.20;;
1354;SDS011;671;48.972;9.276;2022-09-09T18:08:35;0.30;;;0.20;;
1354;SDS011;671;48.972;9.276;2022-09-09T18:11:02;0.30;;;0.30;;
1354;SDS011;671;48.972;9.276;2022-09-09T18:13:30;0.30;;;0.30;;
1354;SDS011;671;48.972;9.276;2022-09-09T18:15:56;0.30;;;0.20;;
1354;SDS011;671;48.972;9.276;2022-09-09T18:18:24;0.30;;;0.30;;
1354;SDS011;671;48.972;9.276;2022-09-09T18:21:00;0.30;;;0.20;;
1354;SDS011;671;48.972;9.276;2022-09-09T18:23:28;0.30;;;0.20;;
1354;SDS011;671;48.972;9.276;2022-09-09T18:25:55;0.30;;;0.20;;
1354;SDS011;671;48.972;9.276;2022-09-09T18:28:25;0.30;;;0.30;;
1354;SDS011;671;48.972;9.276;2022-09-09T18:30:52;0.30;;;0.30;;
1354;SDS011;671;48.972;9.276;2022-09-09T18:33:18;0.30;;;0.27;;
1354;SDS011;671;48.972;9.276;2022-09-09T18:35:45;0.30;;;0.20;;